Time;durP1;ratioP1;P1;durP2;ratioP2;P2;SDS_P1;SDS_P2;PMS_P1;PMS_P2;Temp;Humidity;BMP_temperature;BMP_pressure;BME280_temperature;BME280_humidity;BME280_pressure;Samples;Min_cycle;Max_cycle;Signal;HPM_P1;HPM_P2
2022/04/03 00:00:58;;;;;;;9.17;4.63;;;2.80;99.90;;;;;;5084144;28;20670;-69
2022/04/03 00:03:25;;;;;;;6.33;4.30;;;2.80;99.90;;;;;;5082239;28;20214;-68
2022/04/03 00:05:52;;;;;;;9.33;4.63;;;2.80;99.90;;;;;;5076335;28;20222;-69
2022/04/03 00:08:18;;;;;;;5.10;3.40;;;2.70;99.90;;;;;;5090169;28;20218;-68
2022/04/03 00:10:46;;;;;;;7.03;3.90;;;2.70;99.90;;;;;;5091330;28;20278;-69
2022/04/03 00:13:13;;;;;;;5.87;3.97;;;2.70;99.90;;;;;;5085415;28;20199;-68
2022/04/03 00:15:42;;;;;;;7.07;3.50;;;2.60;99.90;;;;;;5088076;28;20216;-68
2022/04/03 00:18:09;;;;;;;6.13;4.10;;;2.60;99.90;;;;;;5082929;28;20286;-69
2022/04/03 00:20:40;;;;;;;6.20;3.47;;;2.60;99.90;;;;;;5066234;28;20207;-68
2022/04/03 00:23:06;;;;;;;6.70;3.57;;;2.60;99.90;;;;;;5056006;28;20199;-68
2022/04/03 00:25:33;;;;;;;8.17;4.23;;;2.50;99.90;;;;;;5087258;28;20216;-68
2022/04/03 00:28:00;;;;;;;6.77;4.00;;;2.50;99.90;;;;;;5086996;28;20237;-69
2022/04/03 00:30:27;;;;;;;7.03;3.93;;;2.50;99.90;;;;;;5081710;28;20225;-68
2022/04/03 00:32:54;;;;;;;6.67;4.10;;;2.40;99.90;;;;;;5083316;28;20201;-70
2022/04/03 00:35:21;;;;;;;6.70;3.77;;;2.40;99.90;;;;;;5083084;28;20217;-68
2022/04/03 00:37:47;;;;;;;6.13;3.50;;;2.30;99.90;;;;;;5080592;28;20195;-68
2022/04/03 00:40:15;;;;;;;7.90;4.07;;;2.30;99.90;;;;;;5071079;28;20203;-70
2022/04/03 00:42:41;;;;;;;7.33;3.90;;;2.30;99.90;;;;;;5088569;28;20190;-68
2022/04/03 00:45:09;;;;;;;7.23;4.20;;;2.20;99.90;;;;;;5081011;28;20744;-69
2022/04/03 00:47:36;;;;;;;6.60;3.83;;;2.20;99.90;;;;;;5088638;28;20203;-68
2022/04/03 00:50:03;;;;;;;6.27;3.80;;;2.20;99.90;;;;;;5082373;28;20571;-68
2022/04/03 00:52:30;;;;;;;7.47;4.23;;;2.10;99.90;;;;;;5083147;28;20190;-68
2022/04/03 00:54:57;;;;;;;6.23;3.90;;;2.00;99.90;;;;;;5087853;28;20331;-69
2022/04/03 00:57:26;;;;;;;7.90;4.27;;;2.00;99.90;;;;;;5083842;28;20219;-68
2022/04/03 00:59:54;;;;;;;7.17;4.00;;;2.00;99.90;;;;;;5079075;28;20244;-70
2022/04/03 01:02:21;;;;;;;5.70;3.70;;;2.00;99.90;;;;;;5072269;28;20332;-69
2022/04/03 01:04:48;;;;;;;5.83;3.37;;;1.90;99.90;;;;;;5066588;28;20212;-70
2022/04/03 01:07:18;;;;;;;6.80;4.00;;;1.90;99.90;;;;;;5066986;28;20205;-70
2022/04/03 01:09:44;;;;;;;7.17;3.60;;;1.80;99.90;;;;;;5075173;28;20219;-68
2022/04/03 01:12:11;;;;;;;4.37;3.20;;;1.80;99.90;;;;;;5088698;28;20196;-68
2022/04/03 01:14:40;;;;;;;6.17;4.20;;;1.70;99.90;;;;;;5085866;28;20190;-67
2022/04/03 01:17:10;;;;;;;6.70;4.10;;;1.70;99.90;;;;;;5074108;28;20219;-70
2022/04/03 01:19:38;;;;;;;5.63;3.63;;;1.70;99.90;;;;;;5081650;28;20193;-68
2022/04/03 01:22:05;;;;;;;6.00;4.23;;;1.70;99.90;;;;;;5081808;28;20200;-69
2022/04/03 01:24:33;;;;;;;7.97;4.17;;;1.70;99.90;;;;;;5085363;28;20197;-68
2022/04/03 01:27:03;;;;;;;5.77;3.90;;;1.70;99.90;;;;;;5082441;28;20261;-68
2022/04/03 01:29:30;;;;;;;5.03;3.70;;;1.70;99.90;;;;;;5089045;28;20218;-69
2022/04/03 01:31:57;;;;;;;5.60;3.57;;;1.60;99.90;;;;;;5090040;28;20188;-68
2022/04/03 01:34:23;;;;;;;8.03;4.07;;;1.60;99.90;;;;;;5083063;28;20201;-71
2022/04/03 01:36:50;;;;;;;7.13;4.17;;;1.50;99.90;;;;;;5076400;28;20231;-69
2022/04/03 01:39:17;;;;;;;7.07;3.30;;;1.50;99.90;;;;;;5077321;28;20202;-68
2022/04/03 01:41:44;;;;;;;9.37;3.70;;;1.50;99.90;;;;;;5075760;28;20195;-68
2022/04/03 01:44:11;;;;;;;5.10;3.30;;;1.50;99.90;;;;;;5087401;28;20194;-68
2022/04/03 01:46:40;;;;;;;6.67;3.50;;;1.50;99.90;;;;;;5080141;28;20223;-67
2022/04/03 01:49:07;;;;;;;6.23;4.03;;;1.50;99.90;;;;;;5085259;28;20574;-69
2022/04/03 01:51:35;;;;;;;5.63;3.67;;;1.40;99.90;;;;;;5083029;28;20673;-69
2022/04/03 01:54:02;;;;;;;4.17;3.20;;;1.40;99.90;;;;;;5079353;28;20197;-68
2022/04/03 01:56:29;;;;;;;5.87;3.73;;;1.30;99.90;;;;;;5086174;28;20228;-68
2022/04/03 01:58:56;;;;;;;5.33;3.77;;;1.30;99.90;;;;;;5086775;28;20194;-68
2022/04/03 02:01:22;;;;;;;5.30;4.07;;;1.30;99.90;;;;;;5084504;28;20254;-69
2022/04/03 02:03:49;;;;;;;6.80;3.70;;;1.40;99.90;;;;;;5091651;28;20579;-69
2022/04/03 02:06:16;;;;;;;6.97;3.73;;;1.30;99.90;;;;;;5087470;28;20212;-68
2022/04/03 02:08:43;;;;;;;6.63;3.93;;;1.10;99.90;;;;;;5087975;28;20202;-69
2022/04/03 02:11:10;;;;;;;7.33;3.73;;;1.10;99.90;;;;;;5083626;28;20220;-68
2022/04/03 02:13:36;;;;;;;5.43;3.60;;;1.00;99.90;;;;;;5090666;28;20201;-69
2022/04/03 02:16:04;;;;;;;5.23;3.70;;;1.10;99.90;;;;;;5084684;28;20229;-69
2022/04/03 02:18:30;;;;;;;5.20;3.93;;;1.10;99.90;;;;;;5091471;28;20228;-68
2022/04/03 02:20:57;;;;;;;5.67;4.07;;;1.10;99.90;;;;;;5087994;28;20201;-69
2022/04/03 02:23:24;;;;;;;6.20;3.80;;;1.00;99.90;;;;;;5072827;28;20710;-68
2022/04/03 02:25:52;;;;;;;6.07;3.90;;;1.00;99.90;;;;;;5087764;28;20215;-69
2022/04/03 02:28:19;;;;;;;5.03;3.47;;;1.00;99.90;;;;;;5082519;28;20251;-68
2022/04/03 02:30:47;;;;;;;6.13;3.63;;;1.10;99.90;;;;;;5089713;28;20250;-68
2022/04/03 02:33:14;;;;;;;4.73;3.10;;;1.10;99.90;;;;;;5073182;28;20189;-69
2022/04/03 02:35:40;;;;;;;4.87;3.53;;;1.20;99.90;;;;;;5090833;28;20233;-70
2022/04/03 02:38:08;;;;;;;6.07;3.43;;;1.00;99.90;;;;;;5090435;28;20205;-69
2022/04/03 02:40:35;;;;;;;5.30;3.30;;;1.00;99.90;;;;;;5087457;28;20198;-69
2022/04/03 02:43:02;;;;;;;5.30;3.23;;;1.10;99.90;;;;;;5084053;28;20293;-70
2022/04/03 02:45:29;;;;;;;7.27;3.00;;;1.00;99.90;;;;;;5092656;28;20708;-69
2022/04/03 02:47:56;;;;;;;5.30;3.13;;;0.90;99.90;;;;;;5092998;28;20237;-70
2022/04/03 02:50:24;;;;;;;5.57;2.97;;;0.90;99.90;;;;;;5095343;28;20629;-69
2022/04/03 02:52:52;;;;;;;5.00;3.03;;;0.90;99.90;;;;;;5087929;28;20193;-69
2022/04/03 02:55:20;;;;;;;5.93;3.00;;;0.90;99.90;;;;;;5089778;28;20223;-66
2022/04/03 02:57:47;;;;;;;5.27;3.27;;;0.80;99.90;;;;;;5090970;28;20189;-68
2022/04/03 03:00:14;;;;;;;7.10;3.17;;;0.80;99.90;;;;;;5084229;28;20193;-70
2022/04/03 03:02:42;;;;;;;6.10;3.27;;;0.80;99.90;;;;;;5089367;28;20229;-68
2022/04/03 03:05:09;;;;;;;6.47;3.23;;;0.90;99.90;;;;;;5090734;28;20214;-68
2022/04/03 03:07:38;;;;;;;5.37;3.10;;;1.00;99.90;;;;;;5093185;28;20212;-70
2022/04/03 03:10:07;;;;;;;5.20;3.07;;;0.90;99.90;;;;;;5078809;28;20243;-69
2022/04/03 03:12:34;;;;;;;7.23;3.67;;;0.80;99.90;;;;;;5083372;28;20197;-68
2022/04/03 03:15:03;;;;;;;4.37;2.90;;;0.80;99.90;;;;;;5091761;28;20196;-68
2022/04/03 03:17:31;;;;;;;4.67;2.90;;;0.80;99.90;;;;;;5087792;28;20189;-68
2022/04/03 03:19:58;;;;;;;6.07;3.70;;;0.80;99.90;;;;;;5093244;28;20228;-68
2022/04/03 03:22:25;;;;;;;5.20;3.50;;;0.70;99.90;;;;;;5085310;28;20190;-69
2022/04/03 03:24:52;;;;;;;4.63;2.90;;;0.60;99.90;;;;;;5087766;28;20250;-68
2022/04/03 03:27:19;;;;;;;5.20;3.07;;;0.60;99.90;;;;;;5086214;28;20198;-68
2022/04/03 03:29:45;;;;;;;7.37;3.23;;;0.60;99.90;;;;;;5087385;28;20682;-68
2022/04/03 03:32:12;;;;;;;5.67;3.10;;;0.70;99.90;;;;;;5085903;28;20216;-68
2022/04/03 03:34:39;;;;;;;4.27;2.93;;;0.60;99.90;;;;;;5083309;28;20672;-69
2022/04/03 03:37:08;;;;;;;5.00;3.40;;;0.60;99.90;;;;;;5083071;28;20216;-68
2022/04/03 03:39:35;;;;;;;7.63;3.40;;;0.50;99.90;;;;;;5085311;28;20195;-68
2022/04/03 03:42:02;;;;;;;4.30;2.93;;;0.50;99.90;;;;;;5092770;28;20380;-69
2022/04/03 03:44:29;;;;;;;7.73;3.13;;;0.50;99.90;;;;;;5069853;28;20199;-69
2022/04/03 03:46:55;;;;;;;6.07;2.80;;;0.60;99.90;;;;;;5072516;28;20227;-69
2022/04/03 03:49:23;;;;;;;3.60;2.60;;;0.70;99.90;;;;;;5087547;28;20223;-69
2022/04/03 03:51:50;;;;;;;3.93;2.43;;;0.70;99.90;;;;;;5081408;28;20209;-69
2022/04/03 03:54:16;;;;;;;6.50;3.30;;;0.70;99.90;;;;;;5083487;28;20194;-69
2022/04/03 03:56:44;;;;;;;4.33;2.60;;;0.70;99.90;;;;;;5080738;28;20226;-68
2022/04/03 03:59:10;;;;;;;3.93;2.63;;;0.70;99.90;;;;;;5086207;28;20670;-69
2022/04/03 04:01:37;;;;;;;4.57;2.87;;;0.90;99.90;;;;;;5078740;28;20194;-68
2022/04/03 04:04:04;;;;;;;6.00;2.80;;;0.90;99.90;;;;;;5084537;28;20203;-68
2022/04/03 04:06:31;;;;;;;4.57;3.03;;;0.80;99.90;;;;;;5081444;28;20588;-69
2022/04/03 04:08:57;;;;;;;4.87;2.60;;;0.70;99.90;;;;;;5087326;28;20645;-68
2022/04/03 04:11:24;;;;;;;5.53;2.70;;;0.70;99.90;;;;;;5089466;28;20218;-70
2022/04/03 04:13:51;;;;;;;4.60;2.80;;;0.50;99.90;;;;;;5088075;28;20247;-69
2022/04/03 04:16:17;;;;;;;4.57;2.67;;;0.40;99.90;;;;;;5091541;28;20239;-70
2022/04/03 04:18:44;;;;;;;5.63;2.73;;;0.40;99.90;;;;;;5087487;28;20189;-68
2022/04/03 04:21:12;;;;;;;5.73;2.80;;;0.50;99.90;;;;;;5085905;28;20279;-68
2022/04/03 04:23:38;;;;;;;5.13;2.87;;;0.50;99.90;;;;;;5090248;28;20209;-70
2022/04/03 04:26:06;;;;;;;6.53;2.80;;;0.40;99.90;;;;;;5078181;28;20252;-67
2022/04/03 04:28:33;;;;;;;4.10;2.57;;;0.40;99.90;;;;;;5086777;28;20190;-69
2022/04/03 04:30:59;;;;;;;6.63;2.93;;;0.30;99.90;;;;;;5077561;28;20730;-69
2022/04/03 04:33:26;;;;;;;5.33;2.70;;;0.10;99.90;;;;;;5065138;28;20213;-70
2022/04/03 04:35:53;;;;;;;5.47;2.80;;;-0.10;99.90;;;;;;5076720;28;20221;-67
2022/04/03 04:38:20;;;;;;;3.67;2.63;;;-0.20;99.90;;;;;;5072160;28;20190;-66
2022/04/03 04:40:47;;;;;;;7.17;2.60;;;-0.30;99.90;;;;;;5088696;28;20201;-68
2022/04/03 04:43:14;;;;;;;4.77;2.77;;;-0.30;99.90;;;;;;5085669;28;20198;-67
2022/04/03 04:45:40;;;;;;;3.83;2.80;;;-0.40;99.90;;;;;;5084867;28;20769;-68
2022/04/03 04:48:07;;;;;;;4.50;2.80;;;-0.40;99.90;;;;;;5087402;28;20205;-71
2022/04/03 04:50:34;;;;;;;4.67;3.07;;;-0.40;99.90;;;;;;5086129;28;20268;-68
2022/04/03 04:53:00;;;;;;;3.40;2.67;;;-0.30;99.90;;;;;;5083574;28;20196;-68
2022/04/03 04:55:27;;;;;;;4.97;2.50;;;-0.30;99.90;;;;;;5086291;28;20717;-70
2022/04/03 04:57:56;;;;;;;4.17;2.60;;;-0.30;99.90;;;;;;5085025;28;20204;-70
2022/04/03 05:00:26;;;;;;;5.20;2.93;;;-0.20;99.90;;;;;;5080826;28;20193;-67
2022/04/03 05:02:53;;;;;;;4.53;2.53;;;-0.20;99.90;;;;;;5088130;28;20484;-67
2022/04/03 05:05:22;;;;;;;4.37;2.70;;;-0.30;99.90;;;;;;5082501;28;20727;-67
2022/04/03 05:07:53;;;;;;;5.07;2.57;;;-0.10;99.90;;;;;;5080284;28;20232;-67
2022/04/03 05:10:20;;;;;;;5.37;2.70;;;0.10;99.90;;;;;;5080220;28;20226;-69
2022/04/03 05:12:47;;;;;;;3.40;2.37;;;0.10;99.90;;;;;;5086086;28;20198;-68
2022/04/03 05:15:14;;;;;;;5.43;3.23;;;0.20;99.90;;;;;;5088650;28;20221;-68
2022/04/03 05:17:42;;;;;;;4.53;2.80;;;0.40;99.90;;;;;;5072263;28;20575;-67
2022/04/03 05:20:11;;;;;;;3.70;2.60;;;0.50;99.90;;;;;;5086066;28;20673;-67
2022/04/03 05:22:39;;;;;;;4.17;2.57;;;0.60;99.90;;;;;;5083703;28;20228;-67
2022/04/03 05:25:08;;;;;;;2.93;2.43;;;0.50;99.90;;;;;;5074543;28;20438;-67
2022/04/03 05:27:35;;;;;;;3.30;2.10;;;0.60;99.90;;;;;;5083824;28;20202;-69
2022/04/03 05:30:03;;;;;;;4.20;2.30;;;0.60;99.90;;;;;;5084928;28;20194;-67
2022/04/03 05:32:31;;;;;;;3.67;2.50;;;0.70;99.90;;;;;;5088546;28;20661;-68
2022/04/03 05:34:59;;;;;;;4.07;2.13;;;0.70;99.90;;;;;;5071734;28;20260;-69
2022/04/03 05:37:26;;;;;;;5.93;2.37;;;0.70;99.90;;;;;;5080110;28;20194;-69
2022/04/03 05:39:53;;;;;;;3.57;2.27;;;0.80;99.90;;;;;;5085985;28;20194;-69
2022/04/03 05:42:20;;;;;;;3.23;2.40;;;0.80;99.90;;;;;;5083702;28;20202;-70
2022/04/03 05:44:47;;;;;;;4.80;2.63;;;0.90;99.90;;;;;;5074286;28;20662;-70
2022/04/03 05:47:17;;;;;;;3.77;2.37;;;1.00;99.90;;;;;;5071652;28;20200;-69
2022/04/03 05:49:45;;;;;;;4.20;2.80;;;1.10;99.90;;;;;;5078600;28;20205;-69
2022/04/03 05:52:11;;;;;;;3.83;2.27;;;1.20;99.90;;;;;;5080206;28;20689;-71
2022/04/03 05:54:38;;;;;;;5.00;2.83;;;1.30;99.90;;;;;;5082401;28;20840;-69
2022/04/03 05:57:05;;;;;;;4.50;2.47;;;1.40;99.90;;;;;;5059276;28;20292;-70
2022/04/03 05:59:32;;;;;;;5.27;2.77;;;1.50;99.90;;;;;;5070831;28;20218;-69
2022/04/03 06:02:05;;;;;;;6.20;2.70;;;1.50;99.90;;;;;;5085547;28;20196;-70
2022/04/03 06:04:33;;;;;;;4.10;2.60;;;1.60;99.90;;;;;;5080026;28;20251;-68
2022/04/03 06:07:00;;;;;;;3.40;2.10;;;1.60;99.90;;;;;;5079222;28;20231;-68
2022/04/03 06:09:27;;;;;;;6.77;2.60;;;1.50;99.90;;;;;;5082886;28;20194;-68
2022/04/03 06:11:53;;;;;;;4.43;2.97;;;1.50;99.90;;;;;;5076875;28;20762;-70
2022/04/03 06:14:20;;;;;;;3.83;2.50;;;1.60;99.90;;;;;;5081582;28;20572;-68
2022/04/03 06:16:48;;;;;;;4.60;2.87;;;1.60;99.90;;;;;;5084548;28;20225;-67
2022/04/03 06:19:14;;;;;;;3.43;2.67;;;1.60;99.90;;;;;;5079044;28;20692;-68
2022/04/03 06:21:41;;;;;;;4.10;2.30;;;1.70;99.90;;;;;;5078933;28;20195;-68
2022/04/03 06:24:08;;;;;;;3.30;2.20;;;1.70;99.90;;;;;;5072594;28;20198;-69
2022/04/03 06:26:35;;;;;;;6.93;2.83;;;1.80;99.90;;;;;;5080812;28;20279;-68
2022/04/03 06:29:02;;;;;;;3.97;2.40;;;1.80;99.90;;;;;;5074972;28;20208;-69
2022/04/03 06:31:28;;;;;;;3.77;2.47;;;1.80;99.90;;;;;;5080174;28;20260;-68
2022/04/03 06:33:55;;;;;;;4.47;2.80;;;1.90;99.90;;;;;;5074014;28;20222;-70
2022/04/03 06:36:22;;;;;;;3.23;2.50;;;1.90;99.90;;;;;;5085869;28;20237;-68
2022/04/03 06:38:48;;;;;;;3.33;2.50;;;2.00;99.90;;;;;;5083492;28;20205;-71
2022/04/03 06:41:17;;;;;;;3.43;2.33;;;2.20;99.90;;;;;;5085318;28;20203;-67
2022/04/03 06:43:44;;;;;;;3.20;2.17;;;2.40;99.90;;;;;;5079609;28;20663;-69
2022/04/03 06:46:11;;;;;;;5.73;2.60;;;2.50;99.90;;;;;;5083611;28;20721;-69
2022/04/03 06:48:38;;;;;;;4.17;1.87;;;2.50;99.90;;;;;;5078970;28;20200;-68
2022/04/03 06:51:04;;;;;;;3.30;2.10;;;2.50;99.90;;;;;;5089411;28;20300;-68
2022/04/03 06:53:31;;;;;;;3.13;2.00;;;2.60;99.90;;;;;;5072786;28;20616;-70
2022/04/03 06:55:58;;;;;;;3.80;2.30;;;2.70;99.90;;;;;;5089737;28;20206;-69
2022/04/03 06:58:24;;;;;;;2.70;1.90;;;2.80;99.90;;;;;;5087702;28;20660;-67
2022/04/03 07:00:53;;;;;;;3.77;1.90;;;2.90;99.90;;;;;;5085140;28;20198;-67
2022/04/03 07:03:20;;;;;;;2.63;1.87;;;3.00;99.90;;;;;;5089106;28;20612;-70
2022/04/03 07:05:48;;;;;;;2.80;1.90;;;3.10;99.90;;;;;;5082261;28;20605;-70
2022/04/03 07:08:15;;;;;;;2.50;1.67;;;3.20;99.90;;;;;;5066827;28;20199;-70
2022/04/03 07:10:43;;;;;;;3.77;1.63;;;3.30;99.90;;;;;;5088190;28;20216;-69
2022/04/03 07:13:10;;;;;;;5.30;1.93;;;3.40;99.90;;;;;;5085708;28;20634;-70
2022/04/03 07:15:37;;;;;;;2.57;1.67;;;3.50;99.90;;;;;;5093236;28;20220;-67
2022/04/03 07:18:04;;;;;;;4.03;1.83;;;3.60;99.90;;;;;;5075793;28;20646;-69
2022/04/03 07:20:31;;;;;;;2.67;1.43;;;3.60;99.90;;;;;;5076405;28;20243;-67
2022/04/03 07:22:58;;;;;;;2.87;1.30;;;3.70;99.90;;;;;;5085991;28;20197;-68
2022/04/03 07:25:24;;;;;;;2.97;1.77;;;3.90;99.90;;;;;;5092640;28;20783;-69
2022/04/03 07:27:51;;;;;;;2.13;1.60;;;3.90;99.90;;;;;;5082112;28;20206;-68
2022/04/03 07:30:18;;;;;;;2.93;1.70;;;4.00;99.90;;;;;;5090193;28;20185;-69
2022/04/03 07:32:44;;;;;;;1.67;1.37;;;3.90;99.90;;;;;;5080063;28;20222;-68
2022/04/03 07:35:11;;;;;;;2.43;1.60;;;4.00;99.90;;;;;;5090875;28;20210;-68
2022/04/03 07:37:38;;;;;;;2.30;1.50;;;4.00;99.90;;;;;;5082893;28;20707;-67
2022/04/03 07:40:07;;;;;;;2.20;1.30;;;4.10;99.90;;;;;;5091630;28;20194;-69
2022/04/03 07:42:35;;;;;;;1.90;1.40;;;4.20;99.90;;;;;;5084644;28;20497;-68
2022/04/03 07:45:04;;;;;;;1.80;1.17;;;4.30;99.90;;;;;;5085321;28;21263;-69
2022/04/03 07:47:31;;;;;;;2.20;1.30;;;4.40;99.90;;;;;;5087043;28;20198;-68
2022/04/03 07:49:59;;;;;;;4.07;1.50;;;4.40;99.90;;;;;;5088032;28;20430;-67
2022/04/03 07:52:25;;;;;;;3.60;1.70;;;4.40;99.90;;;;;;5087282;28;20217;-68
2022/04/03 07:54:52;;;;;;;1.40;1.20;;;4.50;99.90;;;;;;5086119;28;20190;-69
2022/04/03 07:57:19;;;;;;;2.20;1.50;;;4.70;99.90;;;;;;5089539;28;20593;-67
2022/04/03 07:59:46;;;;;;;4.17;1.20;;;4.70;99.90;;;;;;5087206;28;20253;-69
2022/04/03 08:02:13;;;;;;;3.23;1.93;;;4.60;99.90;;;;;;5091514;28;20198;-69
2022/04/03 08:04:40;;;;;;;1.43;1.10;;;4.60;99.90;;;;;;5087603;28;20228;-69
2022/04/03 08:07:07;;;;;;;1.57;1.27;;;4.60;99.90;;;;;;5084986;28;20229;-69
2022/04/03 08:09:34;;;;;;;1.93;1.37;;;4.50;99.90;;;;;;5088284;28;20202;-68
2022/04/03 08:12:00;;;;;;;2.03;1.33;;;4.60;99.90;;;;;;5077705;28;20272;-69
2022/04/03 08:14:27;;;;;;;2.43;1.23;;;4.60;99.90;;;;;;5087041;28;20563;-71
2022/04/03 08:16:54;;;;;;;2.73;1.33;;;4.70;99.90;;;;;;5092224;28;20256;-69
2022/04/03 08:19:21;;;;;;;1.50;1.23;;;4.70;99.90;;;;;;5084127;28;20257;-69
2022/04/03 08:21:48;;;;;;;2.37;1.50;;;4.80;99.90;;;;;;5086452;28;20577;-69
2022/04/03 08:24:14;;;;;;;1.63;1.40;;;4.90;99.90;;;;;;5087983;28;20194;-67
2022/04/03 08:26:42;;;;;;;1.60;1.13;;;5.00;99.90;;;;;;5092690;28;20719;-69
2022/04/03 08:29:08;;;;;;;1.70;1.33;;;5.00;99.90;;;;;;5081755;28;20204;-68
2022/04/03 08:31:35;;;;;;;1.73;1.13;;;5.10;99.90;;;;;;5087770;28;20582;-68
2022/04/03 08:34:02;;;;;;;1.40;1.17;;;5.10;99.90;;;;;;5081969;28;20650;-68
2022/04/03 08:36:29;;;;;;;1.47;1.27;;;5.10;99.90;;;;;;5085083;28;20559;-68
2022/04/03 08:38:56;;;;;;;4.50;1.40;;;5.20;99.90;;;;;;5087189;28;20337;-68
2022/04/03 08:41:23;;;;;;;1.80;1.40;;;5.30;99.90;;;;;;5084397;28;20220;-69
2022/04/03 08:43:50;;;;;;;2.07;1.30;;;5.40;99.90;;;;;;5087262;28;20200;-69
2022/04/03 08:46:17;;;;;;;2.20;1.50;;;5.40;99.90;;;;;;5076548;28;20834;-71
2022/04/03 08:48:45;;;;;;;1.53;1.23;;;5.50;99.90;;;;;;5087535;28;20286;-69
2022/04/03 08:51:12;;;;;;;2.77;1.80;;;5.50;99.90;;;;;;5083028;28;20634;-69
2022/04/03 08:53:43;;;;;;;1.90;1.40;;;5.50;99.90;;;;;;5090539;28;20195;-71
2022/04/03 08:56:10;;;;;;;2.17;1.47;;;5.50;99.90;;;;;;5076866;28;20212;-69
2022/04/03 08:58:36;;;;;;;4.13;1.60;;;5.40;99.90;;;;;;5089798;28;20197;-69
2022/04/03 09:01:03;;;;;;;1.80;1.40;;;5.50;99.90;;;;;;5082400;28;20187;-69
2022/04/03 09:03:30;;;;;;;2.33;1.47;;;5.50;99.90;;;;;;5085135;28;20193;-70
2022/04/03 09:06:14;;;;;;;1.33;1.23;;;5.60;99.90;;;;;;5086013;28;20225;-71
2022/04/03 09:08:41;;;;;;;2.63;1.40;;;5.70;99.90;;;;;;5089105;28;20249;-70
2022/04/03 09:11:08;;;;;;;2.60;1.20;;;5.80;99.90;;;;;;5088348;28;20255;-71
2022/04/03 09:13:36;;;;;;;2.20;1.50;;;5.90;99.70;;;;;;5083652;28;20605;-71
2022/04/03 09:16:04;;;;;;;1.43;1.10;;;5.90;99.30;;;;;;5075283;28;20210;-71
2022/04/03 09:18:51;;;;;;;1.70;1.40;;;6.00;98.50;;;;;;5064710;28;20354;-73
2022/04/03 09:21:27;;;;;;;1.80;1.20;;;6.10;98.90;;;;;;5080289;28;20201;-72
2022/04/03 09:24:09;;;;;;;1.73;1.20;;;6.40;98.40;;;;;;5081821;28;20200;-70
2022/04/03 09:26:36;;;;;;;3.37;1.40;;;6.40;97.50;;;;;;5085183;28;20248;-69
2022/04/03 09:29:07;;;;;;;1.67;1.40;;;6.40;97.00;;;;;;5085791;28;20484;-69
2022/04/03 09:31:35;;;;;;;1.90;1.40;;;6.40;97.30;;;;;;5089335;28;20564;-70
2022/04/03 09:34:07;;;;;;;1.57;1.30;;;6.70;99.00;;;;;;5088840;28;20231;-73
2022/04/03 09:36:35;;;;;;;1.80;1.60;;;6.30;98.50;;;;;;5079284;28;20654;-70
2022/04/03 09:39:12;;;;;;;3.83;1.60;;;6.20;98.90;;;;;;5085370;28;20206;-71
2022/04/03 09:41:57;;;;;;;2.63;1.47;;;6.30;99.00;;;;;;5085996;28;20196;-72
2022/04/03 09:44:49;;;;;;;1.80;1.50;;;6.50;99.60;;;;;;5089914;28;20196;-71
2022/04/03 09:47:24;;;;;;;2.03;1.40;;;6.50;99.30;;;;;;5086133;28;20212;-72
2022/04/03 09:49:52;;;;;;;2.10;1.53;;;6.50;99.20;;;;;;5084565;28;20653;-69
2022/04/03 09:52:40;;;;;;;1.80;1.30;;;6.40;98.60;;;;;;5087810;28;20221;-70
2022/04/03 09:55:14;;;;;;;1.30;1.20;;;6.50;98.40;;;;;;5083896;28;20196;-70
2022/04/03 09:57:47;;;;;;;1.70;1.50;;;6.40;98.20;;;;;;5071743;28;20268;-68
2022/04/03 10:00:41;;;;;;;1.63;1.20;;;6.70;97.70;;;;;;5076661;28;20190;-72
2022/04/03 10:03:12;;;;;;;2.00;1.50;;;6.90;97.40;;;;;;5079480;28;20217;-73
2022/04/03 10:05:40;;;;;;;1.73;1.60;;;6.90;97.80;;;;;;5081171;28;20214;-71
2022/04/03 10:08:07;;;;;;;1.47;1.33;;;7.00;98.00;;;;;;5084821;28;20212;-70
2022/04/03 10:10:36;;;;;;;2.97;1.30;;;7.30;96.50;;;;;;5079604;28;20202;-70
2022/04/03 10:13:04;;;;;;;1.40;1.13;;;7.20;94.90;;;;;;5084628;28;20690;-73
2022/04/03 10:15:31;;;;;;;2.47;1.50;;;7.00;95.40;;;;;;5087271;28;20219;-69
2022/04/03 10:17:58;;;;;;;1.47;1.37;;;7.00;95.90;;;;;;5094753;28;20200;-70
2022/04/03 10:20:28;;;;;;;1.50;1.40;;;6.90;95.60;;;;;;5094152;28;20196;-70
2022/04/03 10:23:00;;;;;;;1.50;1.30;;;6.90;96.40;;;;;;5094904;28;20195;-71
2022/04/03 10:25:30;;;;;;;2.73;1.20;;;7.20;96.60;;;;;;5091883;28;20209;-70
2022/04/03 10:28:01;;;;;;;1.90;1.43;;;7.00;94.80;;;;;;5088847;28;20205;-73
2022/04/03 10:30:37;;;;;;;1.73;1.40;;;6.90;95.50;;;;;;5073773;28;20617;-70
2022/04/03 10:33:04;;;;;;;1.47;1.30;;;7.20;96.30;;;;;;5086336;28;20270;-71
2022/04/03 10:35:31;;;;;;;1.40;1.30;;;7.50;96.00;;;;;;5086492;28;20206;-72
2022/04/03 10:38:05;;;;;;;1.70;1.20;;;7.40;95.60;;;;;;5092472;28;20238;-70
2022/04/03 10:40:35;;;;;;;1.13;1.03;;;7.40;94.80;;;;;;5086538;28;20588;-71
2022/04/03 10:43:06;;;;;;;2.03;1.40;;;7.50;94.40;;;;;;5086595;28;20199;-71
2022/04/03 10:45:37;;;;;;;1.90;1.50;;;7.60;95.40;;;;;;5078273;28;20315;-70
2022/04/03 10:48:24;;;;;;;1.70;1.43;;;7.50;95.70;;;;;;5084680;28;20590;-70
2022/04/03 10:51:00;;;;;;;3.03;1.30;;;7.40;95.10;;;;;;5095497;28;20205;-68
2022/04/03 10:53:36;;;;;;;2.03;1.50;;;7.50;94.90;;;;;;5082937;28;20216;-70
2022/04/03 10:56:09;;;;;;;1.83;1.57;;;7.50;95.30;;;;;;5083954;28;20708;-68
2022/04/03 10:58:42;;;;;;;1.80;1.40;;;7.60;95.10;;;;;;5086317;28;20197;-72
2022/04/03 11:01:20;;;;;;;1.53;1.40;;;7.70;95.00;;;;;;5081553;28;20200;-69
2022/04/03 11:03:57;;;;;;;1.77;1.47;;;7.50;95.80;;;;;;5094337;28;20749;-71
2022/04/03 11:06:26;;;;;;;2.00;1.60;;;7.40;95.80;;;;;;5087904;28;20211;-70
2022/04/03 11:09:07;;;;;;;1.50;1.40;;;7.70;95.00;;;;;;5091265;28;20214;-69
2022/04/03 11:11:38;;;;;;;1.80;1.40;;;8.00;95.00;;;;;;5084261;28;20268;-70
2022/04/03 11:14:10;;;;;;;1.70;1.50;;;7.70;94.20;;;;;;5088746;28;20597;-71
2022/04/03 11:16:51;;;;;;;3.60;2.03;;;7.80;95.00;;;;;;5093926;28;20214;-69
2022/04/03 11:19:34;;;;;;;3.17;1.77;;;7.60;94.90;;;;;;5089528;28;20260;-69
2022/04/03 11:22:01;;;;;;;1.70;1.50;;;7.60;95.20;;;;;;5089750;28;20201;-71
2022/04/03 11:24:28;;;;;;;2.40;1.70;;;7.40;94.10;;;;;;5074998;28;20201;-70
2022/04/03 11:26:55;;;;;;;1.70;1.53;;;7.50;94.10;;;;;;5092637;28;20301;-70
2022/04/03 11:29:22;;;;;;;2.30;1.70;;;7.50;94.20;;;;;;5090704;28;20199;-69
2022/04/03 11:31:49;;;;;;;1.37;1.23;;;7.70;94.50;;;;;;5093304;28;20320;-71
2022/04/03 11:34:16;;;;;;;2.20;1.67;;;7.80;93.50;;;;;;5089871;28;20192;-70
2022/04/03 11:36:43;;;;;;;2.30;1.70;;;7.90;92.90;;;;;;5089797;28;20222;-69
2022/04/03 11:39:09;;;;;;;1.77;1.57;;;7.80;92.70;;;;;;5094155;28;20199;-70
2022/04/03 11:41:38;;;;;;;3.23;1.57;;;7.90;93.50;;;;;;5090740;28;20191;-68
2022/04/03 11:44:13;;;;;;;2.10;1.60;;;8.00;94.00;;;;;;5094512;28;20573;-71
2022/04/03 11:46:51;;;;;;;1.87;1.57;;;8.30;94.20;;;;;;5087117;28;20249;-72
2022/04/03 11:49:29;;;;;;;3.53;2.40;;;8.30;93.70;;;;;;5088541;28;20197;-71
2022/04/03 11:52:09;;;;;;;2.33;1.90;;;8.20;93.60;;;;;;5096403;28;20720;-70
2022/04/03 11:54:37;;;;;;;2.80;1.77;;;8.30;93.10;;;;;;5092925;28;20196;-70
2022/04/03 11:57:07;;;;;;;3.20;1.90;;;8.50;93.90;;;;;;5095745;28;20572;-70
2022/04/03 11:59:36;;;;;;;5.57;2.30;;;8.40;93.60;;;;;;5095390;28;20231;-71
2022/04/03 12:02:10;;;;;;;2.00;1.80;;;8.00;93.90;;;;;;5094036;28;20199;-69
2022/04/03 12:04:41;;;;;;;4.33;2.37;;;7.70;94.50;;;;;;5091430;28;20192;-70
2022/04/03 12:07:14;;;;;;;2.10;1.73;;;7.70;94.10;;;;;;5093074;28;20627;-70
2022/04/03 12:09:45;;;;;;;2.47;1.90;;;7.80;94.40;;;;;;5094851;28;20223;-70
2022/04/03 12:12:12;;;;;;;3.40;2.00;;;7.90;94.70;;;;;;5090546;28;20593;-70
2022/04/03 12:14:42;;;;;;;3.60;2.20;;;8.20;94.60;;;;;;5092509;28;20753;-70
2022/04/03 12:17:10;;;;;;;3.80;2.10;;;8.20;93.80;;;;;;5094487;28;20216;-70
2022/04/03 12:19:47;;;;;;;2.77;2.03;;;8.00;94.10;;;;;;5093188;28;20186;-69
2022/04/03 12:22:18;;;;;;;2.70;1.90;;;8.30;94.50;;;;;;5089140;28;20207;-70
2022/04/03 12:24:47;;;;;;;2.27;1.90;;;8.60;94.00;;;;;;5076780;28;20204;-69
2022/04/03 12:27:14;;;;;;;4.10;1.93;;;8.80;95.00;;;;;;5088363;28;20199;-70
2022/04/03 12:29:46;;;;;;;3.23;2.30;;;9.10;93.70;;;;;;5090051;28;20636;-70
2022/04/03 12:32:22;;;;;;;2.40;1.93;;;8.90;93.40;;;;;;5091438;28;20217;-72
2022/04/03 12:34:50;;;;;;;2.73;2.00;;;8.60;93.70;;;;;;5094318;28;20196;-70
2022/04/03 12:37:18;;;;;;;3.00;2.00;;;8.80;96.00;;;;;;5087118;28;20219;-71
2022/04/03 12:39:44;;;;;;;1.90;1.70;;;9.10;94.90;;;;;;5087482;28;20193;-72
2022/04/03 12:42:23;;;;;;;2.27;1.73;;;9.10;93.70;;;;;;5090154;28;20211;-69
2022/04/03 12:45:06;;;;;;;2.50;1.87;;;8.80;93.10;;;;;;5090256;28;20212;-69
2022/04/03 12:47:35;;;;;;;2.40;1.80;;;8.40;93.20;;;;;;5084910;28;20201;-70
2022/04/03 12:50:07;;;;;;;3.37;2.20;;;8.30;93.50;;;;;;5089363;28;20192;-68
2022/04/03 12:52:38;;;;;;;1.67;1.50;;;8.20;93.80;;;;;;5094124;28;20213;-69
2022/04/03 12:55:29;;;;;;;2.10;1.77;;;8.10;93.20;;;;;;5092266;28;20414;-68
2022/04/03 13:00:45;;;;;;;2.80;1.70;;;8.40;93.10;;;;;;5091713;28;20194;-70
2022/04/03 13:03:35;;;;;;;2.30;1.53;;;8.70;93.30;;;;;;5089987;28;20758;-70
2022/04/03 13:06:04;;;;;;;1.73;1.63;;;8.90;93.70;;;;;;5091923;28;20209;-70
2022/04/03 13:08:48;;;;;;;2.20;2.00;;;9.40;93.10;;;;;;5081382;28;20212;-70